sensor_id;sensor_type;location;lat;lon;timestamp;P1;durP1;ratioP1;P2;durP2;ratioP2
33138;SDS011;19501;50.948;5.316;2022-07-23T00:01:58;24.10;;;11.02;;
33138;SDS011;19501;50.948;5.316;2022-07-23T00:04:24;25.38;;;11.40;;
33138;SDS011;19501;50.948;5.316;2022-07-23T00:06:49;25.98;;;11.68;;
33138;SDS011;19501;50.948;5.316;2022-07-23T00:09:15;24.92;;;11.45;;
33138;SDS011;19501;50.948;5.316;2022-07-23T00:11:42;22.98;;;11.70;;
33138;SDS011;19501;50.948;5.316;2022-07-23T00:14:07;24.67;;;10.82;;
33138;SDS011;19501;50.948;5.316;2022-07-23T00:16:33;21.35;;;10.23;;
33138;SDS011;19501;50.948;5.316;2022-07-23T00:18:59;24.73;;;11.57;;
33138;SDS011;19501;50.948;5.316;2022-07-23T00:21:26;21.55;;;10.57;;
33138;SDS011;19501;50.948;5.316;2022-07-23T00:23:52;22.92;;;10.55;;
33138;SDS011;19501;50.948;5.316;2022-07-23T00:26:17;24.65;;;10.88;;
33138;SDS011;19501;50.948;5.316;2022-07-23T00:28:43;22.88;;;10.50;;
33138;SDS011;19501;50.948;5.316;2022-07-23T00:31:08;28.35;;;11.95;;
33138;SDS011;19501;50.948;5.316;2022-07-23T00:33:35;20.90;;;9.90;;
33138;SDS011;19501;50.948;5.316;2022-07-23T00:36:00;26.77;;;11.35;;
33138;SDS011;19501;50.948;5.316;2022-07-23T00:38:26;23.02;;;10.38;;
33138;SDS011;19501;50.948;5.316;2022-07-23T00:40:55;23.27;;;10.48;;
33138;SDS011;19501;50.948;5.316;2022-07-23T00:43:20;24.00;;;10.10;;
33138;SDS011;19501;50.948;5.316;2022-07-23T00:45:47;22.83;;;10.52;;
33138;SDS011;19501;50.948;5.316;2022-07-23T00:48:13;24.38;;;10.63;;
33138;SDS011;19501;50.948;5.316;2022-07-23T00:50:38;21.83;;;10.13;;
33138;SDS011;19501;50.948;5.316;2022-07-23T00:53:05;22.00;;;10.80;;
33138;SDS011;19501;50.948;5.316;2022-07-23T00:55:32;25.17;;;9.95;;
33138;SDS011;19501;50.948;5.316;2022-07-23T00:57:57;22.13;;;10.38;;
33138;SDS011;19501;50.948;5.316;2022-07-23T01:00:24;22.95;;;9.85;;
33138;SDS011;19501;50.948;5.316;2022-07-23T01:02:50;22.70;;;10.43;;
33138;SDS011;19501;50.948;5.316;2022-07-23T01:05:16;23.08;;;10.32;;
33138;SDS011;19501;50.948;5.316;2022-07-23T01:07:46;25.98;;;11.93;;
33138;SDS011;19501;50.948;5.316;2022-07-23T01:10:16;24.08;;;10.38;;
33138;SDS011;19501;50.948;5.316;2022-07-23T01:13:08;22.02;;;11.27;;
33138;SDS011;19501;50.948;5.316;2022-07-23T01:15:35;25.38;;;11.80;;
33138;SDS011;19501;50.948;5.316;2022-07-23T01:18:03;23.35;;;10.52;;
33138;SDS011;19501;50.948;5.316;2022-07-23T01:20:30;23.08;;;10.43;;
33138;SDS011;19501;50.948;5.316;2022-07-23T01:22:56;24.50;;;11.05;;
33138;SDS011;19501;50.948;5.316;2022-07-23T01:25:22;22.38;;;10.93;;
33138;SDS011;19501;50.948;5.316;2022-07-23T01:27:48;22.35;;;11.48;;
33138;SDS011;19501;50.948;5.316;2022-07-23T01:30:15;22.10;;;10.30;;
33138;SDS011;19501;50.948;5.316;2022-07-23T01:32:40;22.42;;;10.25;;
33138;SDS011;19501;50.948;5.316;2022-07-23T01:35:07;23.95;;;11.50;;
33138;SDS011;19501;50.948;5.316;2022-07-23T01:37:33;23.88;;;11.27;;
33138;SDS011;19501;50.948;5.316;2022-07-23T01:40:00;23.02;;;10.57;;
33138;SDS011;19501;50.948;5.316;2022-07-23T01:42:26;22.02;;;10.52;;
33138;SDS011;19501;50.948;5.316;2022-07-23T01:44:52;19.60;;;9.93;;
33138;SDS011;19501;50.948;5.316;2022-07-23T01:47:17;23.00;;;10.63;;
33138;SDS011;19501;50.948;5.316;2022-07-23T01:49:44;20.30;;;9.27;;
33138;SDS011;19501;50.948;5.316;2022-07-23T01:52:10;21.63;;;9.70;;
33138;SDS011;19501;50.948;5.316;2022-07-23T01:54:36;20.70;;;9.80;;
33138;SDS011;19501;50.948;5.316;2022-07-23T01:57:04;23.02;;;10.48;;
33138;SDS011;19501;50.948;5.316;2022-07-23T01:59:30;26.35;;;10.82;;
33138;SDS011;19501;50.948;5.316;2022-07-23T02:01:56;21.73;;;10.75;;
33138;SDS011;19501;50.948;5.316;2022-07-23T02:04:23;24.67;;;11.15;;
33138;SDS011;19501;50.948;5.316;2022-07-23T02:06:50;23.02;;;10.50;;
33138;SDS011;19501;50.948;5.316;2022-07-23T02:09:17;22.40;;;10.50;;
33138;SDS011;19501;50.948;5.316;2022-07-23T02:11:43;21.25;;;10.93;;
33138;SDS011;19501;50.948;5.316;2022-07-23T02:14:09;22.52;;;10.48;;
33138;SDS011;19501;50.948;5.316;2022-07-23T02:16:35;24.85;;;10.38;;
33138;SDS011;19501;50.948;5.316;2022-07-23T02:19:00;19.75;;;9.88;;
33138;SDS011;19501;50.948;5.316;2022-07-23T02:21:27;20.20;;;10.20;;
33138;SDS011;19501;50.948;5.316;2022-07-23T02:23:55;21.20;;;10.73;;
33138;SDS011;19501;50.948;5.316;2022-07-23T02:26:21;23.90;;;11.05;;
33138;SDS011;19501;50.948;5.316;2022-07-23T02:28:47;22.17;;;10.65;;
33138;SDS011;19501;50.948;5.316;2022-07-23T02:31:12;24.08;;;11.15;;
33138;SDS011;19501;50.948;5.316;2022-07-23T02:33:38;20.95;;;10.45;;
33138;SDS011;19501;50.948;5.316;2022-07-23T02:36:04;24.05;;;11.30;;
33138;SDS011;19501;50.948;5.316;2022-07-23T02:38:30;22.77;;;10.43;;
33138;SDS011;19501;50.948;5.316;2022-07-23T02:40:55;25.92;;;11.95;;
33138;SDS011;19501;50.948;5.316;2022-07-23T02:43:21;19.50;;;10.43;;
33138;SDS011;19501;50.948;5.316;2022-07-23T02:45:47;23.15;;;10.60;;
33138;SDS011;19501;50.948;5.316;2022-07-23T02:48:12;19.30;;;9.75;;
33138;SDS011;19501;50.948;5.316;2022-07-23T02:50:38;23.58;;;9.65;;
33138;SDS011;19501;50.948;5.316;2022-07-23T02:53:04;19.95;;;9.95;;
33138;SDS011;19501;50.948;5.316;2022-07-23T02:55:30;21.65;;;10.77;;
33138;SDS011;19501;50.948;5.316;2022-07-23T02:57:56;20.15;;;9.43;;
33138;SDS011;19501;50.948;5.316;2022-07-23T03:00:22;20.85;;;9.82;;
33138;SDS011;19501;50.948;5.316;2022-07-23T03:02:48;25.05;;;10.82;;
33138;SDS011;19501;50.948;5.316;2022-07-23T03:05:14;24.05;;;10.43;;
33138;SDS011;19501;50.948;5.316;2022-07-23T03:07:40;20.33;;;8.40;;
33138;SDS011;19501;50.948;5.316;2022-07-23T03:10:06;23.90;;;9.63;;
33138;SDS011;19501;50.948;5.316;2022-07-23T03:12:32;23.20;;;11.05;;
33138;SDS011;19501;50.948;5.316;2022-07-23T03:14:57;20.33;;;9.52;;
33138;SDS011;19501;50.948;5.316;2022-07-23T03:17:23;20.92;;;9.93;;
33138;SDS011;19501;50.948;5.316;2022-07-23T03:19:49;21.60;;;10.30;;
33138;SDS011;19501;50.948;5.316;2022-07-23T03:22:14;23.35;;;9.70;;
33138;SDS011;19501;50.948;5.316;2022-07-23T03:24:40;23.35;;;10.13;;
33138;SDS011;19501;50.948;5.316;2022-07-23T03:27:25;20.95;;;9.43;;
33138;SDS011;19501;50.948;5.316;2022-07-23T03:29:54;23.60;;;10.40;;
33138;SDS011;19501;50.948;5.316;2022-07-23T03:32:20;20.90;;;9.73;;
33138;SDS011;19501;50.948;5.316;2022-07-23T03:34:46;22.38;;;10.43;;
33138;SDS011;19501;50.948;5.316;2022-07-23T03:37:12;20.23;;;9.27;;
33138;SDS011;19501;50.948;5.316;2022-07-23T03:39:39;20.42;;;9.55;;
33138;SDS011;19501;50.948;5.316;2022-07-23T03:42:05;22.90;;;9.30;;
33138;SDS011;19501;50.948;5.316;2022-07-23T03:44:31;29.95;;;11.35;;
33138;SDS011;19501;50.948;5.316;2022-07-23T03:46:56;23.77;;;10.02;;
33138;SDS011;19501;50.948;5.316;2022-07-23T03:49:22;26.15;;;11.65;;
33138;SDS011;19501;50.948;5.316;2022-07-23T03:51:47;19.98;;;10.30;;
33138;SDS011;19501;50.948;5.316;2022-07-23T03:54:14;23.77;;;11.73;;
33138;SDS011;19501;50.948;5.316;2022-07-23T03:56:39;21.60;;;10.32;;
33138;SDS011;19501;50.948;5.316;2022-07-23T03:59:06;22.05;;;10.30;;
33138;SDS011;19501;50.948;5.316;2022-07-23T04:01:31;25.27;;;10.80;;
33138;SDS011;19501;50.948;5.316;2022-07-23T04:03:58;24.13;;;10.93;;
33138;SDS011;19501;50.948;5.316;2022-07-23T04:06:23;22.90;;;11.25;;
33138;SDS011;19501;50.948;5.316;2022-07-23T04:08:49;23.85;;;11.63;;
33138;SDS011;19501;50.948;5.316;2022-07-23T04:11:14;23.67;;;11.27;;
33138;SDS011;19501;50.948;5.316;2022-07-23T04:13:41;27.30;;;11.70;;
33138;SDS011;19501;50.948;5.316;2022-07-23T04:16:06;25.83;;;12.18;;
33138;SDS011;19501;50.948;5.316;2022-07-23T04:18:32;29.05;;;12.77;;
33138;SDS011;19501;50.948;5.316;2022-07-23T04:20:58;25.80;;;12.57;;
33138;SDS011;19501;50.948;5.316;2022-07-23T04:23:25;25.02;;;12.45;;
33138;SDS011;19501;50.948;5.316;2022-07-23T04:25:50;25.77;;;12.65;;
33138;SDS011;19501;50.948;5.316;2022-07-23T04:28:16;23.10;;;12.20;;
33138;SDS011;19501;50.948;5.316;2022-07-23T04:30:45;23.90;;;11.88;;
33138;SDS011;19501;50.948;5.316;2022-07-23T04:33:11;24.98;;;12.02;;
33138;SDS011;19501;50.948;5.316;2022-07-23T04:35:37;25.40;;;12.38;;
33138;SDS011;19501;50.948;5.316;2022-07-23T04:38:03;27.42;;;12.02;;
33138;SDS011;19501;50.948;5.316;2022-07-23T04:40:29;25.67;;;12.05;;
33138;SDS011;19501;50.948;5.316;2022-07-23T04:42:55;23.52;;;11.65;;
33138;SDS011;19501;50.948;5.316;2022-07-23T04:45:21;25.73;;;12.02;;
33138;SDS011;19501;50.948;5.316;2022-07-23T04:47:50;23.33;;;11.65;;
33138;SDS011;19501;50.948;5.316;2022-07-23T04:50:16;26.33;;;13.35;;
33138;SDS011;19501;50.948;5.316;2022-07-23T04:52:46;23.95;;;12.38;;
33138;SDS011;19501;50.948;5.316;2022-07-23T04:55:12;24.70;;;12.85;;
33138;SDS011;19501;50.948;5.316;2022-07-23T04:57:38;22.95;;;11.80;;
33138;SDS011;19501;50.948;5.316;2022-07-23T05:00:04;25.90;;;13.00;;
33138;SDS011;19501;50.948;5.316;2022-07-23T05:02:30;25.63;;;12.25;;
33138;SDS011;19501;50.948;5.316;2022-07-23T05:04:55;22.83;;;12.27;;
33138;SDS011;19501;50.948;5.316;2022-07-23T05:07:24;23.40;;;12.15;;
33138;SDS011;19501;50.948;5.316;2022-07-23T05:09:50;23.42;;;11.77;;
33138;SDS011;19501;50.948;5.316;2022-07-23T05:12:15;27.92;;;14.10;;
33138;SDS011;19501;50.948;5.316;2022-07-23T05:14:41;25.42;;;12.90;;
33138;SDS011;19501;50.948;5.316;2022-07-23T05:17:07;28.13;;;13.63;;
33138;SDS011;19501;50.948;5.316;2022-07-23T05:19:34;27.88;;;14.32;;
33138;SDS011;19501;50.948;5.316;2022-07-23T05:22:00;27.10;;;13.48;;
33138;SDS011;19501;50.948;5.316;2022-07-23T05:24:26;31.45;;;13.80;;
33138;SDS011;19501;50.948;5.316;2022-07-23T05:26:52;26.55;;;14.25;;
33138;SDS011;19501;50.948;5.316;2022-07-23T05:29:18;29.40;;;14.48;;
33138;SDS011;19501;50.948;5.316;2022-07-23T05:31:44;28.05;;;14.32;;
33138;SDS011;19501;50.948;5.316;2022-07-23T05:34:10;25.90;;;14.55;;
33138;SDS011;19501;50.948;5.316;2022-07-23T05:36:39;27.67;;;15.20;;
33138;SDS011;19501;50.948;5.316;2022-07-23T05:39:05;32.58;;;16.30;;
33138;SDS011;19501;50.948;5.316;2022-07-23T05:41:31;29.05;;;16.08;;
33138;SDS011;19501;50.948;5.316;2022-07-23T05:43:56;28.20;;;14.35;;
33138;SDS011;19501;50.948;5.316;2022-07-23T05:46:22;29.15;;;15.32;;
33138;SDS011;19501;50.948;5.316;2022-07-23T05:48:48;30.10;;;16.42;;
33138;SDS011;19501;50.948;5.316;2022-07-23T05:51:21;30.98;;;15.95;;
33138;SDS011;19501;50.948;5.316;2022-07-23T05:53:50;27.13;;;15.88;;
33138;SDS011;19501;50.948;5.316;2022-07-23T05:56:16;25.88;;;14.88;;
33138;SDS011;19501;50.948;5.316;2022-07-23T05:58:44;34.63;;;17.02;;
33138;SDS011;19501;50.948;5.316;2022-07-23T06:01:11;27.35;;;15.82;;
33138;SDS011;19501;50.948;5.316;2022-07-23T06:03:37;29.45;;;15.60;;
33138;SDS011;19501;50.948;5.316;2022-07-23T06:06:03;25.35;;;15.23;;
33138;SDS011;19501;50.948;5.316;2022-07-23T06:08:29;27.45;;;16.25;;
33138;SDS011;19501;50.948;5.316;2022-07-23T06:10:55;26.65;;;15.35;;
33138;SDS011;19501;50.948;5.316;2022-07-23T06:13:20;30.40;;;16.73;;
33138;SDS011;19501;50.948;5.316;2022-07-23T06:15:47;29.80;;;16.30;;
33138;SDS011;19501;50.948;5.316;2022-07-23T06:18:13;25.67;;;15.88;;
33138;SDS011;19501;50.948;5.316;2022-07-23T06:20:39;29.25;;;16.38;;
33138;SDS011;19501;50.948;5.316;2022-07-23T06:23:05;26.98;;;16.17;;
33138;SDS011;19501;50.948;5.316;2022-07-23T06:25:31;40.50;;;16.52;;
33138;SDS011;19501;50.948;5.316;2022-07-23T06:27:57;30.95;;;15.73;;
33138;SDS011;19501;50.948;5.316;2022-07-23T06:30:22;28.45;;;15.52;;
33138;SDS011;19501;50.948;5.316;2022-07-23T06:32:48;29.45;;;15.80;;
33138;SDS011;19501;50.948;5.316;2022-07-23T06:35:14;27.77;;;16.30;;
33138;SDS011;19501;50.948;5.316;2022-07-23T06:37:41;26.75;;;14.93;;
33138;SDS011;19501;50.948;5.316;2022-07-23T06:40:06;29.20;;;15.52;;
33138;SDS011;19501;50.948;5.316;2022-07-23T06:42:33;27.67;;;15.25;;
33138;SDS011;19501;50.948;5.316;2022-07-23T06:44:58;29.88;;;17.20;;
33138;SDS011;19501;50.948;5.316;2022-07-23T06:47:24;30.02;;;16.02;;
33138;SDS011;19501;50.948;5.316;2022-07-23T06:49:49;31.75;;;17.98;;
33138;SDS011;19501;50.948;5.316;2022-07-23T06:52:15;30.50;;;16.75;;
33138;SDS011;19501;50.948;5.316;2022-07-23T06:54:43;29.15;;;16.63;;
33138;SDS011;19501;50.948;5.316;2022-07-23T06:57:09;26.73;;;15.40;;
33138;SDS011;19501;50.948;5.316;2022-07-23T06:59:35;32.13;;;16.33;;
33138;SDS011;19501;50.948;5.316;2022-07-23T07:02:05;28.52;;;15.80;;
33138;SDS011;19501;50.948;5.316;2022-07-23T07:04:32;29.45;;;16.90;;
33138;SDS011;19501;50.948;5.316;2022-07-23T07:06:58;30.58;;;17.20;;
33138;SDS011;19501;50.948;5.316;2022-07-23T07:09:24;27.63;;;16.02;;
33138;SDS011;19501;50.948;5.316;2022-07-23T07:11:52;29.13;;;16.27;;
33138;SDS011;19501;50.948;5.316;2022-07-23T07:14:18;29.50;;;16.35;;
33138;SDS011;19501;50.948;5.316;2022-07-23T07:16:44;29.23;;;16.23;;
33138;SDS011;19501;50.948;5.316;2022-07-23T07:19:09;29.98;;;16.95;;
33138;SDS011;19501;50.948;5.316;2022-07-23T07:21:35;28.38;;;16.10;;
33138;SDS011;19501;50.948;5.316;2022-07-23T07:24:01;29.42;;;15.93;;
33138;SDS011;19501;50.948;5.316;2022-07-23T07:26:31;31.25;;;17.20;;
33138;SDS011;19501;50.948;5.316;2022-07-23T07:28:57;30.67;;;16.52;;
33138;SDS011;19501;50.948;5.316;2022-07-23T07:31:25;27.55;;;15.75;;
33138;SDS011;19501;50.948;5.316;2022-07-23T07:33:51;27.02;;;16.08;;
33138;SDS011;19501;50.948;5.316;2022-07-23T07:36:17;26.17;;;15.05;;
33138;SDS011;19501;50.948;5.316;2022-07-23T07:38:43;29.27;;;15.25;;
33138;SDS011;19501;50.948;5.316;2022-07-23T07:41:11;27.48;;;15.90;;
33138;SDS011;19501;50.948;5.316;2022-07-23T07:43:38;28.00;;;16.05;;
33138;SDS011;19501;50.948;5.316;2022-07-23T07:46:06;26.38;;;14.48;;
33138;SDS011;19501;50.948;5.316;2022-07-23T07:48:35;28.27;;;16.17;;
33138;SDS011;19501;50.948;5.316;2022-07-23T07:51:01;27.08;;;14.13;;
33138;SDS011;19501;50.948;5.316;2022-07-23T07:53:28;28.25;;;14.93;;
33138;SDS011;19501;50.948;5.316;2022-07-23T07:55:53;28.65;;;14.48;;
33138;SDS011;19501;50.948;5.316;2022-07-23T07:58:19;28.10;;;15.93;;
33138;SDS011;19501;50.948;5.316;2022-07-23T08:00:45;26.13;;;14.88;;
33138;SDS011;19501;50.948;5.316;2022-07-23T08:03:10;28.55;;;16.00;;
33138;SDS011;19501;50.948;5.316;2022-07-23T08:05:36;31.25;;;15.13;;
33138;SDS011;19501;50.948;5.316;2022-07-23T08:08:02;30.85;;;17.15;;
33138;SDS011;19501;50.948;5.316;2022-07-23T08:10:28;27.42;;;14.77;;
33138;SDS011;19501;50.948;5.316;2022-07-23T08:12:55;28.52;;;13.52;;
33138;SDS011;19501;50.948;5.316;2022-07-23T08:15:22;22.17;;;11.60;;
33138;SDS011;19501;50.948;5.316;2022-07-23T08:17:48;25.60;;;11.27;;
33138;SDS011;19501;50.948;5.316;2022-07-23T08:20:16;24.95;;;11.77;;
33138;SDS011;19501;50.948;5.316;2022-07-23T08:22:50;25.17;;;11.98;;
33138;SDS011;19501;50.948;5.316;2022-07-23T08:25:21;24.10;;;12.70;;
33138;SDS011;19501;50.948;5.316;2022-07-23T08:27:50;24.55;;;13.60;;
33138;SDS011;19501;50.948;5.316;2022-07-23T08:30:16;26.27;;;12.30;;
33138;SDS011;19501;50.948;5.316;2022-07-23T08:32:56;29.23;;;13.15;;
33138;SDS011;19501;50.948;5.316;2022-07-23T08:35:28;22.65;;;12.05;;
33138;SDS011;19501;50.948;5.316;2022-07-23T08:38:03;25.63;;;12.55;;
33138;SDS011;19501;50.948;5.316;2022-07-23T08:40:31;24.73;;;12.68;;
33138;SDS011;19501;50.948;5.316;2022-07-23T08:42:59;26.33;;;13.32;;
33138;SDS011;19501;50.948;5.316;2022-07-23T08:45:26;26.77;;;13.70;;
33138;SDS011;19501;50.948;5.316;2022-07-23T08:47:54;26.50;;;12.95;;
33138;SDS011;19501;50.948;5.316;2022-07-23T08:50:21;28.27;;;12.98;;
33138;SDS011;19501;50.948;5.316;2022-07-23T08:52:49;25.98;;;13.18;;
33138;SDS011;19501;50.948;5.316;2022-07-23T08:55:16;25.77;;;13.25;;
33138;SDS011;19501;50.948;5.316;2022-07-23T08:57:43;26.70;;;12.23;;
33138;SDS011;19501;50.948;5.316;2022-07-23T09:00:11;26.50;;;12.10;;
33138;SDS011;19501;50.948;5.316;2022-07-23T09:02:38;26.60;;;12.35;;
33138;SDS011;19501;50.948;5.316;2022-07-23T09:05:05;23.88;;;12.80;;
33138;SDS011;19501;50.948;5.316;2022-07-23T09:07:31;24.50;;;12.40;;
33138;SDS011;19501;50.948;5.316;2022-07-23T09:10:06;22.40;;;10.85;;
33138;SDS011;19501;50.948;5.316;2022-07-23T09:12:35;21.42;;;10.98;;
33138;SDS011;19501;50.948;5.316;2022-07-23T09:15:08;23.23;;;10.60;;
33138;SDS011;19501;50.948;5.316;2022-07-23T09:20:11;25.25;;;11.57;;
33138;SDS011;19501;50.948;5.316;2022-07-23T09:22:46;26.25;;;11.32;;
33138;SDS011;19501;50.948;5.316;2022-07-23T09:30:12;24.83;;;11.55;;
33138;SDS011;19501;50.948;5.316;2022-07-23T09:32:41;21.80;;;11.45;;
33138;SDS011;19501;50.948;5.316;2022-07-23T09:35:08;21.73;;;10.50;;
33138;SDS011;19501;50.948;5.316;2022-07-23T09:37:36;22.02;;;10.98;;
33138;SDS011;19501;50.948;5.316;2022-07-23T09:40:03;26.00;;;12.05;;
33138;SDS011;19501;50.948;5.316;2022-07-23T09:42:34;20.23;;;10.27;;
33138;SDS011;19501;50.948;5.316;2022-07-23T09:45:00;23.60;;;11.52;;
33138;SDS011;19501;50.948;5.316;2022-07-23T09:47:28;21.17;;;10.50;;
33138;SDS011;19501;50.948;5.316;2022-07-23T09:50:05;19.65;;;8.18;;
33138;SDS011;19501;50.948;5.316;2022-07-23T09:52:46;17.58;;;6.90;;
33138;SDS011;19501;50.948;5.316;2022-07-23T09:55:14;17.10;;;7.65;;
33138;SDS011;19501;50.948;5.316;2022-07-23T09:57:41;21.17;;;8.32;;
33138;SDS011;19501;50.948;5.316;2022-07-23T10:00:10;20.73;;;8.35;;
33138;SDS011;19501;50.948;5.316;2022-07-23T10:02:37;18.83;;;7.78;;
33138;SDS011;19501;50.948;5.316;2022-07-23T10:05:04;22.13;;;7.95;;
33138;SDS011;19501;50.948;5.316;2022-07-23T10:07:31;17.52;;;7.93;;
33138;SDS011;19501;50.948;5.316;2022-07-23T10:10:00;16.60;;;7.35;;
33138;SDS011;19501;50.948;5.316;2022-07-23T10:12:27;17.48;;;7.63;;
33138;SDS011;19501;50.948;5.316;2022-07-23T10:15:02;17.15;;;6.10;;
33138;SDS011;19501;50.948;5.316;2022-07-23T10:17:29;14.20;;;6.38;;
33138;SDS011;19501;50.948;5.316;2022-07-23T10:19:55;15.20;;;6.65;;
33138;SDS011;19501;50.948;5.316;2022-07-23T10:22:33;17.27;;;7.22;;
33138;SDS011;19501;50.948;5.316;2022-07-23T10:33:17;14.30;;;6.78;;
33138;SDS011;19501;50.948;5.316;2022-07-23T10:38:43;13.50;;;6.15;;
33138;SDS011;19501;50.948;5.316;2022-07-23T10:41:34;14.60;;;6.43;;
33138;SDS011;19501;50.948;5.316;2022-07-23T10:47:00;12.75;;;6.38;;
33138;SDS011;19501;50.948;5.316;2022-07-23T10:49:31;12.27;;;4.97;;
33138;SDS011;19501;50.948;5.316;2022-07-23T10:54:43;13.18;;;5.25;;
33138;SDS011;19501;50.948;5.316;2022-07-23T10:57:18;11.35;;;4.60;;
33138;SDS011;19501;50.948;5.316;2022-07-23T11:02:31;12.73;;;5.13;;
33138;SDS011;19501;50.948;5.316;2022-07-23T11:05:04;11.18;;;5.35;;
33138;SDS011;19501;50.948;5.316;2022-07-23T11:07:35;8.68;;;4.30;;
33138;SDS011;19501;50.948;5.316;2022-07-23T11:10:02;10.65;;;4.25;;
33138;SDS011;19501;50.948;5.316;2022-07-23T11:25:34;6.95;;;3.85;;
33138;SDS011;19501;50.948;5.316;2022-07-23T11:28:08;7.03;;;3.67;;
33138;SDS011;19501;50.948;5.316;2022-07-23T11:30:44;6.30;;;3.50;;
33138;SDS011;19501;50.948;5.316;2022-07-23T11:35:47;8.55;;;3.50;;
33138;SDS011;19501;50.948;5.316;2022-07-23T11:38:19;5.88;;;3.30;;
33138;SDS011;19501;50.948;5.316;2022-07-23T11:40:50;6.25;;;3.42;;
33138;SDS011;19501;50.948;5.316;2022-07-23T11:43:17;5.15;;;3.20;;
33138;SDS011;19501;50.948;5.316;2022-07-23T11:45:45;4.70;;;3.20;;
33138;SDS011;19501;50.948;5.316;2022-07-23T11:48:33;5.05;;;3.10;;
33138;SDS011;19501;50.948;5.316;2022-07-23T11:50:58;5.50;;;2.95;;
33138;SDS011;19501;50.948;5.316;2022-07-23T11:53:27;7.30;;;3.47;;
33138;SDS011;19501;50.948;5.316;2022-07-23T11:56:08;4.22;;;3.10;;
33138;SDS011;19501;50.948;5.316;2022-07-23T11:58:38;6.85;;;3.22;;
33138;SDS011;19501;50.948;5.316;2022-07-23T12:01:04;7.70;;;3.60;;
33138;SDS011;19501;50.948;5.316;2022-07-23T12:03:30;5.60;;;3.17;;
33138;SDS011;19501;50.948;5.316;2022-07-23T12:05:57;4.30;;;3.28;;
33138;SDS011;19501;50.948;5.316;2022-07-23T12:08:23;4.20;;;2.90;;
33138;SDS011;19501;50.948;5.316;2022-07-23T12:10:49;6.00;;;3.10;;
33138;SDS011;19501;50.948;5.316;2022-07-23T12:13:16;5.38;;;3.17;;
33138;SDS011;19501;50.948;5.316;2022-07-23T12:15:45;6.07;;;3.28;;
33138;SDS011;19501;50.948;5.316;2022-07-23T12:18:17;9.68;;;3.35;;
33138;SDS011;19501;50.948;5.316;2022-07-23T12:20:48;6.05;;;3.13;;
33138;SDS011;19501;50.948;5.316;2022-07-23T12:23:16;5.13;;;3.30;;
33138;SDS011;19501;50.948;5.316;2022-07-23T12:25:45;6.18;;;3.40;;
33138;SDS011;19501;50.948;5.316;2022-07-23T12:28:18;8.52;;;3.58;;
33138;SDS011;19501;50.948;5.316;2022-07-23T12:30:54;5.47;;;3.28;;
33138;SDS011;19501;50.948;5.316;2022-07-23T12:35:54;6.10;;;3.53;;
33138;SDS011;19501;50.948;5.316;2022-07-23T12:38:22;4.63;;;3.40;;
33138;SDS011;19501;50.948;5.316;2022-07-23T12:40:50;9.80;;;3.53;;
33138;SDS011;19501;50.948;5.316;2022-07-23T12:43:19;5.85;;;3.40;;
33138;SDS011;19501;50.948;5.316;2022-07-23T12:48:32;5.90;;;3.63;;
33138;SDS011;19501;50.948;5.316;2022-07-23T12:51:13;7.45;;;3.78;;
33138;SDS011;19501;50.948;5.316;2022-07-23T12:53:41;7.93;;;4.05;;
33138;SDS011;19501;50.948;5.316;2022-07-23T12:56:21;6.68;;;3.90;;
33138;SDS011;19501;50.948;5.316;2022-07-23T13:01:34;8.35;;;4.20;;
33138;SDS011;19501;50.948;5.316;2022-07-23T13:06:30;8.43;;;3.97;;
33138;SDS011;19501;50.948;5.316;2022-07-23T13:09:01;9.10;;;4.10;;
33138;SDS011;19501;50.948;5.316;2022-07-23T13:11:28;8.50;;;4.15;;
33138;SDS011;19501;50.948;5.316;2022-07-23T13:14:00;7.55;;;3.95;;
33138;SDS011;19501;50.948;5.316;2022-07-23T13:16:29;9.90;;;4.05;;
33138;SDS011;19501;50.948;5.316;2022-07-23T13:18:56;9.55;;;4.00;;
33138;SDS011;19501;50.948;5.316;2022-07-23T13:21:22;8.65;;;4.10;;
33138;SDS011;19501;50.948;5.316;2022-07-23T13:23:48;6.07;;;4.10;;
33138;SDS011;19501;50.948;5.316;2022-07-23T13:26:14;7.28;;;3.83;;
33138;SDS011;19501;50.948;5.316;2022-07-23T13:28:40;7.65;;;3.90;;
33138;SDS011;19501;50.948;5.316;2022-07-23T13:31:06;7.22;;;4.20;;
33138;SDS011;19501;50.948;5.316;2022-07-23T13:33:32;6.95;;;3.88;;
33138;SDS011;19501;50.948;5.316;2022-07-23T13:35:59;6.85;;;3.95;;
33138;SDS011;19501;50.948;5.316;2022-07-23T13:38:24;6.97;;;4.18;;
33138;SDS011;19501;50.948;5.316;2022-07-23T13:40:50;10.10;;;4.30;;
33138;SDS011;19501;50.948;5.316;2022-07-23T13:43:19;8.70;;;4.13;;
33138;SDS011;19501;50.948;5.316;2022-07-23T13:45:46;9.43;;;4.57;;
33138;SDS011;19501;50.948;5.316;2022-07-23T13:48:12;10.57;;;4.97;;
33138;SDS011;19501;50.948;5.316;2022-07-23T13:50:39;8.43;;;4.32;;
33138;SDS011;19501;50.948;5.316;2022-07-23T13:53:07;9.15;;;4.70;;
33138;SDS011;19501;50.948;5.316;2022-07-23T13:55:34;9.30;;;4.47;;
33138;SDS011;19501;50.948;5.316;2022-07-23T13:58:00;10.30;;;5.05;;
33138;SDS011;19501;50.948;5.316;2022-07-23T14:00:26;8.77;;;4.50;;
33138;SDS011;19501;50.948;5.316;2022-07-23T14:02:53;8.85;;;4.35;;
33138;SDS011;19501;50.948;5.316;2022-07-23T14:05:19;9.30;;;5.18;;
33138;SDS011;19501;50.948;5.316;2022-07-23T14:07:45;8.23;;;4.35;;
33138;SDS011;19501;50.948;5.316;2022-07-23T14:10:14;11.73;;;4.88;;
33138;SDS011;19501;50.948;5.316;2022-07-23T14:12:41;10.45;;;5.00;;
33138;SDS011;19501;50.948;5.316;2022-07-23T14:15:07;11.02;;;5.35;;
33138;SDS011;19501;50.948;5.316;2022-07-23T14:17:34;8.40;;;4.60;;
33138;SDS011;19501;50.948;5.316;2022-07-23T14:20:04;9.98;;;5.07;;
33138;SDS011;19501;50.948;5.316;2022-07-23T14:22:31;9.82;;;4.63;;
33138;SDS011;19501;50.948;5.316;2022-07-23T14:24:56;10.45;;;5.13;;
33138;SDS011;19501;50.948;5.316;2022-07-23T14:27:23;8.60;;;4.78;;
33138;SDS011;19501;50.948;5.316;2022-07-23T14:29:50;10.13;;;4.85;;
33138;SDS011;19501;50.948;5.316;2022-07-23T14:32:16;11.75;;;5.22;;
33138;SDS011;19501;50.948;5.316;2022-07-23T14:34:42;11.00;;;5.38;;
33138;SDS011;19501;50.948;5.316;2022-07-23T14:37:09;7.63;;;4.70;;
33138;SDS011;19501;50.948;5.316;2022-07-23T14:39:36;9.95;;;5.43;;
33138;SDS011;19501;50.948;5.316;2022-07-23T14:42:02;10.20;;;5.00;;
33138;SDS011;19501;50.948;5.316;2022-07-23T14:44:28;10.63;;;5.25;;
33138;SDS011;19501;50.948;5.316;2022-07-23T14:46:54;9.65;;;5.20;;
33138;SDS011;19501;50.948;5.316;2022-07-23T14:49:20;14.35;;;5.80;;
33138;SDS011;19501;50.948;5.316;2022-07-23T14:51:46;12.00;;;4.90;;
33138;SDS011;19501;50.948;5.316;2022-07-23T14:54:12;12.20;;;5.00;;
33138;SDS011;19501;50.948;5.316;2022-07-23T14:56:39;9.98;;;5.30;;
33138;SDS011;19501;50.948;5.316;2022-07-23T14:59:06;10.43;;;4.90;;
33138;SDS011;19501;50.948;5.316;2022-07-23T15:01:32;10.25;;;4.82;;
33138;SDS011;19501;50.948;5.316;2022-07-23T15:03:58;18.25;;;7.30;;
33138;SDS011;19501;50.948;5.316;2022-07-23T15:06:28;15.65;;;5.60;;
33138;SDS011;19501;50.948;5.316;2022-07-23T15:08:55;11.32;;;5.28;;
33138;SDS011;19501;50.948;5.316;2022-07-23T15:11:20;11.52;;;5.10;;
33138;SDS011;19501;50.948;5.316;2022-07-23T15:13:46;10.68;;;5.32;;
33138;SDS011;19501;50.948;5.316;2022-07-23T15:16:12;9.20;;;4.82;;
33138;SDS011;19501;50.948;5.316;2022-07-23T15:18:38;11.98;;;5.30;;
33138;SDS011;19501;50.948;5.316;2022-07-23T15:21:04;12.70;;;5.68;;
33138;SDS011;19501;50.948;5.316;2022-07-23T15:23:30;12.13;;;5.40;;